Time;durP1;ratioP1;P1;durP2;ratioP2;P2;SDS_P1;SDS_P2;PMS_P1;PMS_P2;Temp;Humidity;BMP_temperature;BMP_pressure;BME280_temperature;BME280_humidity;BME280_pressure;Samples;Min_cycle;Max_cycle;Signal;HPM_P1;HPM_P2
2023/08/20 00:00:08;;;;;;;31.35;28.83;;;;;;;25.86;64.07;100491.59;4993455;28;96754;-84
2023/08/20 00:02:41;;;;;;;31.30;28.52;;;;;;;25.85;63.99;100496.13;4990316;28;96729;-84
2023/08/20 00:05:08;;;;;;;31.30;28.27;;;;;;;25.81;63.85;100492.03;4979377;28;99112;-84
2023/08/20 00:07:33;;;;;;;31.52;28.52;;;;;;;25.79;64.06;100482.41;4993178;28;98548;-85
2023/08/20 00:09:59;;;;;;;33.08;30.15;;;;;;;25.76;64.09;100494.28;4974532;28;96872;-84
2023/08/20 00:12:26;;;;;;;32.88;29.67;;;;;;;25.74;64.17;100491.75;4992915;28;96873;-84
2023/08/20 00:14:58;;;;;;;32.10;29.33;;;;;;;25.72;64.21;100490.22;4992292;28;98793;-84
2023/08/20 00:17:28;;;;;;;32.40;29.70;;;;;;;25.70;64.20;100489.50;4975056;28;98988;-85
2023/08/20 00:19:54;;;;;;;32.30;29.52;;;;;;;25.65;64.27;100500.69;4993123;28;96730;-84
2023/08/20 00:22:22;;;;;;;33.35;30.58;;;;;;;25.62;64.30;100490.22;4992474;28;96700;-84
2023/08/20 00:24:48;;;;;;;33.38;29.30;;;;;;;25.61;64.26;100490.38;4992690;28;98914;-85
2023/08/20 00:27:14;;;;;;;31.52;28.98;;;;;;;25.57;64.51;100494.34;4992645;28;98490;-85
2023/08/20 00:29:39;;;;;;;32.70;29.80;;;;;;;25.56;64.55;100488.13;4993067;28;96759;-84
2023/08/20 00:32:05;;;;;;;34.13;30.08;;;;;;;25.53;64.65;100485.72;4993346;28;97291;-85
2023/08/20 00:34:31;;;;;;;31.63;28.95;;;;;;;25.51;64.78;100485.00;4993493;28;99240;-84
2023/08/20 00:36:56;;;;;;;32.25;29.40;;;;;;;25.47;64.62;100479.09;4992492;28;99056;-85
2023/08/20 00:39:22;;;;;;;31.27;28.45;;;;;;;25.40;64.90;100479.81;4974290;28;96866;-85
2023/08/20 00:41:47;;;;;;;31.77;29.20;;;;;;;25.36;64.73;100470.34;4992850;28;96929;-85
2023/08/20 00:44:13;;;;;;;31.70;29.20;;;;;;;25.39;64.80;100472.72;4992318;28;98934;-85
2023/08/20 00:46:39;;;;;;;30.63;28.02;;;;;;;25.37;64.52;100480.13;4992686;28;98776;-85
2023/08/20 00:49:05;;;;;;;32.33;29.42;;;;;;;25.37;64.72;100480.13;4974969;28;96838;-85
2023/08/20 00:51:33;;;;;;;31.00;28.17;;;;;;;25.35;64.91;100476.72;4975089;28;97055;-85
2023/08/20 00:53:59;;;;;;;31.75;28.80;;;;;;;25.33;64.93;100476.84;4974762;28;100463;-85
2023/08/20 00:56:25;;;;;;;31.95;29.08;;;;;;;25.30;64.92;100477.13;4958693;28;98297;-85
2023/08/20 00:58:50;;;;;;;32.17;29.10;;;;;;;25.31;65.00;100478.84;4974881;28;96845;-85
2023/08/20 01:01:17;;;;;;;31.55;28.73;;;;;;;25.28;65.01;100479.13;4992906;28;97060;-85
2023/08/20 01:03:43;;;;;;;31.83;29.05;;;;;;;25.25;64.81;100474.06;4973886;28;98702;-85
2023/08/20 01:06:41;;;;;;;30.50;27.70;;;;;;;25.19;65.27;100478.16;4992273;28;98424;-85
2023/08/20 01:09:54;;;;;;;30.85;28.25;;;;;;;25.19;65.20;100479.97;4974491;28;96776;-85
2023/08/20 01:12:20;;;;;;;30.63;28.23;;;;;;;25.11;65.52;100477.13;4968583;28;96914;-85
2023/08/20 01:14:46;;;;;;;31.45;28.73;;;;;;;25.10;65.41;100476.25;4972355;28;98825;-85
2023/08/20 01:17:12;;;;;;;32.47;29.52;;;;;;;25.10;65.21;100480.78;4964895;28;98644;-85
2023/08/20 01:19:38;;;;;;;30.80;28.30;;;;;;;25.03;65.21;100484.06;4965149;28;96743;-85
2023/08/20 01:22:34;;;;;;;30.45;27.90;;;;;;;25.01;65.27;100485.19;4969000;28;97053;-85
2023/08/20 01:25:09;;;;;;;31.95;29.20;;;;;;;24.96;65.34;100482.94;4971544;28;99487;-85
2023/08/20 01:28:04;;;;;;;31.25;28.80;;;;;;;24.97;65.38;100483.78;4966412;28;98866;-85
2023/08/20 01:30:30;;;;;;;30.52;28.02;;;;;;;24.96;65.47;100474.00;4955455;28;96809;-85
2023/08/20 01:32:57;;;;;;;31.15;28.35;;;;;;;24.97;65.15;100470.34;4974411;28;96906;-85
2023/08/20 01:35:25;;;;;;;30.20;27.80;;;;;;;24.97;65.56;100483.78;4957688;28;100973;-85
2023/08/20 01:38:01;;;;;;;31.60;28.75;;;;;;;24.96;65.07;100477.56;4950233;28;97664;-85
2023/08/20 01:40:29;;;;;;;30.95;28.40;;;;;;;24.91;65.54;100471.75;4974432;28;96903;-85
2023/08/20 01:42:54;;;;;;;30.60;28.10;;;;;;;24.90;65.37;100474.56;4957750;28;97077;-85
2023/08/20 01:45:21;;;;;;;31.40;28.58;;;;;;;24.90;65.37;100466.53;4963133;28;98962;-85
2023/08/20 01:47:47;;;;;;;30.52;27.98;;;;;;;24.89;65.38;100459.47;4955575;28;100436;-85
2023/08/20 01:50:14;;;;;;;30.85;28.35;;;;;;;24.87;65.50;100456.94;4974280;28;96892;-85
2023/08/20 01:52:39;;;;;;;30.50;27.95;;;;;;;24.85;65.61;100462.44;4960472;28;96948;-85
2023/08/20 01:55:05;;;;;;;30.45;27.83;;;;;;;24.89;65.27;100473.72;4974698;28;99076;-85
2023/08/20 01:57:32;;;;;;;30.55;28.00;;;;;;;24.89;65.13;100476.41;4973893;28;100276;-85
2023/08/20 01:59:59;;;;;;;31.05;28.63;;;;;;;24.90;65.26;100479.94;4973901;28;96772;-85
2023/08/20 02:02:25;;;;;;;31.25;28.58;;;;;;;24.83;65.28;100485.88;4973780;28;96867;-85
2023/08/20 02:04:50;;;;;;;29.95;27.50;;;;;;;24.79;65.57;100481.78;4961253;28;99130;-85
2023/08/20 02:07:16;;;;;;;30.08;27.35;;;;;;;24.80;65.72;100490.69;4974768;28;98300;-85
2023/08/20 02:09:42;;;;;;;30.58;28.17;;;;;;;24.81;65.77;100490.56;4973806;28;97313;-85
2023/08/20 02:12:08;;;;;;;29.52;27.23;;;;;;;24.79;65.74;100487.16;4985552;28;96901;-85
2023/08/20 02:14:34;;;;;;;30.70;27.95;;;;;;;24.79;65.49;100497.91;4995108;28;99671;-85
2023/08/20 02:17:01;;;;;;;30.30;27.60;;;;;;;24.78;65.70;100489.97;4960571;28;98554;-85
2023/08/20 02:19:27;;;;;;;30.45;28.00;;;;;;;24.79;65.67;100495.22;4994460;28;96650;-85
2023/08/20 02:21:53;;;;;;;30.35;27.80;;;;;;;24.77;65.40;100485.59;4994922;28;96867;-85
2023/08/20 02:24:18;;;;;;;30.70;28.05;;;;;;;24.77;65.41;100496.34;4995344;28;99365;-85
2023/08/20 02:26:44;;;;;;;29.63;27.23;;;;;;;24.74;65.59;100497.47;4994268;28;98391;-85
2023/08/20 02:29:10;;;;;;;30.75;28.13;;;;;;;24.67;65.62;100488.28;4975348;28;96912;-86
2023/08/20 02:31:36;;;;;;;30.15;27.38;;;;;;;24.62;65.78;100488.69;4995250;28;96861;-85
2023/08/20 02:34:01;;;;;;;29.67;27.00;;;;;;;24.65;65.91;100497.47;4972265;28;100652;-85
2023/08/20 02:36:27;;;;;;;30.88;27.98;;;;;;;24.63;65.84;100492.22;4994632;28;97566;-84
2023/08/20 02:38:53;;;;;;;30.42;27.85;;;;;;;24.62;66.07;100490.53;4994468;28;96787;-85
2023/08/20 02:41:18;;;;;;;28.90;26.70;;;;;;;24.55;66.05;100498.28;4994562;28;97909;-85
2023/08/20 02:43:44;;;;;;;30.90;28.40;;;;;;;24.56;65.88;100491.09;4975988;28;100845;-85
2023/08/20 02:46:10;;;;;;;30.45;28.05;;;;;;;24.55;66.26;100492.06;4994173;28;98631;-85
2023/08/20 02:48:35;;;;;;;28.88;26.55;;;;;;;24.49;66.11;100489.91;4994445;28;96690;-86
2023/08/20 02:51:01;;;;;;;30.20;27.63;;;;;;;24.52;65.81;100490.53;4976853;28;97231;-85
2023/08/20 02:53:26;;;;;;;29.70;27.33;;;;;;;24.46;66.21;100484.84;4976148;28;100413;-85
2023/08/20 02:55:52;;;;;;;29.52;27.23;;;;;;;24.50;66.11;100497.00;4993999;28;98381;-85
2023/08/20 02:58:17;;;;;;;29.23;26.83;;;;;;;24.47;66.05;100482.03;4976508;28;96720;-85
2023/08/20 03:00:44;;;;;;;29.95;27.23;;;;;;;24.52;65.93;100495.88;4994576;28;96822;-85
2023/08/20 03:03:11;;;;;;;29.35;26.92;;;;;;;24.48;65.93;100497.13;4975757;28;100719;-85
2023/08/20 03:05:38;;;;;;;29.30;26.90;;;;;;;24.45;65.82;100493.88;4975787;28;100334;-85
2023/08/20 03:08:04;;;;;;;30.33;27.50;;;;;;;24.42;66.13;100500.34;4975613;28;96769;-85
2023/08/20 03:10:31;;;;;;;29.95;27.20;;;;;;;24.42;66.19;100491.44;4976190;28;96945;-85
2023/08/20 03:12:58;;;;;;;29.95;27.38;;;;;;;24.42;66.13;100497.66;4992979;28;98774;-85
2023/08/20 03:15:24;;;;;;;29.15;26.85;;;;;;;24.35;65.99;100488.47;4975815;28;100454;-85
2023/08/20 03:17:49;;;;;;;27.88;25.63;;;;;;;24.34;66.13;100492.13;4993770;28;96865;-85
2023/08/20 03:20:15;;;;;;;29.98;27.48;;;;;;;24.32;66.46;100492.25;4993941;28;96851;-85
2023/08/20 03:22:40;;;;;;;29.20;26.80;;;;;;;24.36;66.15;100500.88;4993409;28;99162;-85
2023/08/20 03:25:06;;;;;;;29.08;26.63;;;;;;;24.34;66.27;100492.13;4975838;28;100073;-85
2023/08/20 03:27:32;;;;;;;30.60;28.00;;;;;;;24.30;66.27;100488.88;4993794;28;96778;-84
2023/08/20 03:29:58;;;;;;;29.50;26.90;;;;;;;24.26;66.21;100490.13;4975709;28;96926;-84
2023/08/20 03:32:24;;;;;;;29.30;26.58;;;;;;;24.26;66.33;100508.91;4975004;28;100632;-84
2023/08/20 03:34:50;;;;;;;28.98;26.58;;;;;;;24.26;66.56;100505.34;4993101;28;98707;-84
2023/08/20 03:37:17;;;;;;;29.67;27.17;;;;;;;24.24;66.22;100508.19;4975444;28;96819;-84
2023/08/20 03:39:43;;;;;;;29.10;27.00;;;;;;;24.20;66.35;100497.84;4975666;28;96925;-84
2023/08/20 03:42:08;;;;;;;29.92;27.52;;;;;;;24.18;66.31;100495.31;4993054;28;99059;-84
2023/08/20 03:44:34;;;;;;;30.05;27.45;;;;;;;24.13;66.38;100494.88;4974232;28;100131;-84
2023/08/20 03:46:59;;;;;;;30.27;27.85;;;;;;;24.12;66.73;100501.22;4993405;28;97075;-84
2023/08/20 03:49:25;;;;;;;28.77;26.50;;;;;;;24.11;66.59;100502.19;4993799;28;96860;-84
2023/08/20 03:51:51;;;;;;;29.90;27.52;;;;;;;24.10;66.61;100501.34;4992907;28;99247;-84
2023/08/20 03:54:17;;;;;;;28.92;26.73;;;;;;;24.10;66.75;100498.66;4993031;28;98502;-84
2023/08/20 03:56:42;;;;;;;28.98;26.52;;;;;;;24.12;66.68;100509.28;4992834;28;96775;-84
2023/08/20 03:59:08;;;;;;;29.45;26.98;;;;;;;24.11;66.52;100502.19;4993099;28;98803;-84
2023/08/20 04:01:35;;;;;;;28.35;26.15;;;;;;;24.13;66.39;100506.44;4992875;28;98702;-84
2023/08/20 04:04:03;;;;;;;29.15;26.85;;;;;;;24.16;66.40;100508.84;4974911;28;98511;-84
2023/08/20 04:06:28;;;;;;;29.35;26.95;;;;;;;24.13;66.37;100509.13;4958943;28;96889;-84
2023/08/20 04:08:54;;;;;;;28.70;26.40;;;;;;;24.14;66.32;100508.16;4993063;28;96836;-85
2023/08/20 04:11:19;;;;;;;29.33;27.02;;;;;;;24.16;66.54;100508.00;4992214;28;99212;-84
2023/08/20 04:13:45;;;;;;;29.23;26.52;;;;;;;24.14;66.41;100507.28;4975373;28;98775;-84
2023/08/20 04:16:11;;;;;;;29.02;26.92;;;;;;;24.16;66.29;100514.22;4993023;28;96748;-84
2023/08/20 04:18:36;;;;;;;28.70;26.50;;;;;;;24.25;65.89;100514.38;4975218;28;96889;-84
2023/08/20 04:21:02;;;;;;;29.92;26.85;;;;;;;24.25;66.01;100517.06;4974056;28;100554;-84
2023/08/20 04:23:27;;;;;;;28.67;26.38;;;;;;;24.30;66.07;100512.16;4992628;28;98772;-84
2023/08/20 04:25:53;;;;;;;28.25;25.77;;;;;;;24.32;65.91;100508.34;4990014;28;96972;-84
2023/08/20 04:28:19;;;;;;;28.50;26.10;;;;;;;24.38;65.73;100509.66;4993193;28;96922;-85
2023/08/20 04:30:44;;;;;;;28.95;26.35;;;;;;;24.43;65.79;100507.41;4991202;28;100621;-84
2023/08/20 04:33:11;;;;;;;27.98;25.67;;;;;;;24.61;65.08;100521.03;4958436;28;99427;-84
2023/08/20 04:35:39;;;;;;;28.42;26.08;;;;;;;24.77;64.44;100525.88;4975161;28;97802;-84
2023/08/20 04:38:05;;;;;;;28.63;26.23;;;;;;;24.86;64.42;100519.66;4974871;28;97002;-84
2023/08/20 04:40:30;;;;;;;28.63;26.25;;;;;;;25.01;64.12;100525.44;4992713;28;97624;-84
2023/08/20 04:42:56;;;;;;;28.73;26.10;;;;;;;25.15;63.79;100527.75;4992164;28;98275;-84
2023/08/20 04:45:22;;;;;;;28.17;25.77;;;;;;;25.28;63.24;100527.50;4974429;28;96872;-84
2023/08/20 04:47:48;;;;;;;27.27;25.25;;;;;;;25.46;63.09;100538.34;4974898;28;96899;-83
2023/08/20 04:50:16;;;;;;;28.90;26.13;;;;;;;25.60;62.69;100532.53;4974495;28;100032;-84
2023/08/20 04:52:41;;;;;;;28.33;26.20;;;;;;;25.76;61.95;100534.63;4992198;28;97676;-84
2023/08/20 04:55:08;;;;;;;29.90;27.27;;;;;;;25.90;61.66;100525.28;4974641;28;96754;-83
2023/08/20 04:57:34;;;;;;;29.33;26.83;;;;;;;25.97;61.25;100535.28;4978157;28;97680;-84
2023/08/20 05:00:01;;;;;;;28.25;25.67;;;;;;;26.15;60.57;100534.50;4977899;28;100512;-84
2023/08/20 05:02:42;;;;;;;;;;;;;;;26.33;60.38;100537.28;4965720;28;98483;-84
2023/08/20 05:05:11;;;;;;;29.38;26.70;;;;;;;26.46;59.74;100532.41;4978346;28;97111;-84
2023/08/20 05:07:38;;;;;;;27.77;25.33;;;;;;;26.67;59.48;100536.69;5010532;28;97001;-84
2023/08/20 05:10:04;;;;;;;28.17;26.08;;;;;;;26.68;59.13;100535.72;4960763;28;100329;-84
2023/08/20 05:12:30;;;;;;;28.58;26.15;;;;;;;26.74;58.78;100537.81;4995948;28;98510;-84
2023/08/20 05:14:56;;;;;;;28.80;26.58;;;;;;;26.89;58.72;100540.81;4978044;28;96718;-84
2023/08/20 05:17:21;;;;;;;27.85;25.65;;;;;;;26.91;58.56;100545.06;4995959;28;96696;-84
2023/08/20 05:19:47;;;;;;;27.58;25.35;;;;;;;27.21;57.83;100543.84;4995473;28;98804;-84
2023/08/20 05:22:12;;;;;;;25.35;23.52;;;;;;;27.39;57.25;100541.13;4977482;28;100341;-84
2023/08/20 05:24:38;;;;;;;27.20;25.00;;;;;;;27.67;56.49;100541.88;4995490;28;97284;-84
2023/08/20 05:27:09;;;;;;;28.67;26.30;;;;;;;28.33;54.43;100543.13;4978160;28;96918;-85
2023/08/20 05:29:34;;;;;;;26.10;24.00;;;;;;;29.41;52.25;100553.19;4995156;28;99284;-85
2023/08/20 05:32:00;;;;;;;26.33;24.27;;;;;;;30.86;48.92;100544.03;4977413;28;100346;-85
2023/08/20 05:34:26;;;;;;;25.20;23.40;;;;;;;32.44;45.39;100555.00;4995179;28;98610;-85
2023/08/20 05:36:51;;;;;;;25.90;23.70;;;;;;;33.17;43.74;100546.91;4954890;28;96770;-85
2023/08/20 05:39:18;;;;;;;27.08;25.08;;;;;;;34.13;41.66;100553.53;4977285;28;100435;-85
2023/08/20 05:41:43;;;;;;;26.90;24.60;;;;;;;34.35;41.09;100554.28;4994885;28;98807;-85
2023/08/20 05:44:10;;;;;;;27.23;24.67;;;;;;;35.06;40.13;100547.66;4995264;28;96938;-85
2023/08/20 05:46:36;;;;;;;23.60;22.00;;;;;;;36.20;38.19;100562.97;4978194;28;97601;-85
2023/08/20 05:49:02;;;;;;;26.98;24.30;;;;;;;36.92;37.08;100559.09;4977257;28;100761;-84
2023/08/20 05:51:32;;;;;;;25.50;23.58;;;;;;;37.11;36.34;100562.78;4964780;28;100454;-84
2023/08/20 05:53:58;;;;;;;24.65;22.83;;;;;;;37.74;35.77;100559.16;4976265;28;96889;-85
2023/08/20 05:56:24;;;;;;;23.35;21.55;;;;;;;38.45;34.43;100560.53;4977482;28;96869;-85
2023/08/20 05:58:49;;;;;;;24.50;22.35;;;;;;;38.35;34.10;100560.22;4977029;28;100669;-85
2023/08/20 06:01:15;;;;;;;26.08;24.10;;;;;;;38.65;33.57;100557.53;4995056;28;98828;-85
2023/08/20 06:03:41;;;;;;;24.60;22.63;;;;;;;39.30;32.46;100556.84;4993878;28;96902;-85
2023/08/20 06:06:07;;;;;;;25.02;23.10;;;;;;;39.82;31.96;100559.75;4995169;28;96932;-85
2023/08/20 06:08:32;;;;;;;24.50;22.67;;;;;;;40.56;31.02;100553.69;4993707;28;99012;-85
2023/08/20 06:10:58;;;;;;;22.60;20.98;;;;;;;41.10;30.37;100553.34;4995197;28;98930;-85
2023/08/20 06:13:24;;;;;;;24.60;22.92;;;;;;;41.39;29.90;100545.84;4994928;28;96726;-85
2023/08/20 06:15:50;;;;;;;24.13;22.35;;;;;;;41.45;29.89;100552.28;4995281;28;96697;-85
2023/08/20 06:18:15;;;;;;;25.17;23.42;;;;;;;42.11;28.82;100563.50;4994664;28;99332;-84
2023/08/20 06:20:41;;;;;;;23.45;21.90;;;;;;;42.49;28.71;100557.94;4994553;28;98828;-84
2023/08/20 06:23:06;;;;;;;24.17;22.55;;;;;;;42.87;28.01;100561.69;4994227;28;96811;-85
2023/08/20 06:25:32;;;;;;;24.30;22.58;;;;;;;42.74;27.84;100559.34;4994793;28;96890;-85
2023/08/20 06:27:57;;;;;;;24.17;22.38;;;;;;;43.36;27.54;100555.25;4994197;28;99121;-85
2023/08/20 06:30:23;;;;;;;23.48;21.83;;;;;;;43.82;27.29;100559.19;4994568;28;98393;-85
2023/08/20 06:32:48;;;;;;;23.75;22.02;;;;;;;43.24;27.62;100568.41;4994625;28;96893;-85
2023/08/20 06:35:14;;;;;;;23.80;22.08;;;;;;;43.34;27.61;100565.72;4994563;28;96947;-85
2023/08/20 06:37:40;;;;;;;23.25;21.65;;;;;;;43.60;27.56;100552.97;4994095;28;99111;-86
2023/08/20 06:40:07;;;;;;;23.50;21.77;;;;;;;44.09;26.79;100558.25;4994399;28;98839;-85
2023/08/20 06:42:32;;;;;;;22.20;20.80;;;;;;;44.86;25.85;100559.38;4994383;28;97017;-86
2023/08/20 06:44:58;;;;;;;23.80;21.90;;;;;;;45.19;24.67;100565.53;4994344;28;96827;-85
2023/08/20 06:47:23;;;;;;;22.35;20.75;;;;;;;45.65;24.38;100561.94;4993582;28;98968;-85
2023/08/20 06:49:49;;;;;;;22.25;20.75;;;;;;;46.22;24.29;100566.19;4994083;28;98833;-86
2023/08/20 06:52:15;;;;;;;22.17;20.77;;;;;;;46.91;23.31;100565.28;4994300;28;96872;-85
2023/08/20 06:54:40;;;;;;;22.83;21.25;;;;;;;47.06;23.31;100563.56;4994348;28;96897;-85
2023/08/20 06:57:06;;;;;;;22.50;20.80;;;;;;;45.92;23.47;100561.59;4993973;28;98956;-85
2023/08/20 06:59:32;;;;;;;22.67;21.17;;;;;;;46.10;23.42;100566.53;4993898;28;98309;-85
2023/08/20 07:01:57;;;;;;;22.95;21.13;;;;;;;46.38;22.93;100572.53;4994245;28;96893;-85
2023/08/20 07:04:23;;;;;;;21.50;20.00;;;;;;;47.44;22.25;100577.69;4994502;28;96868;-85
2023/08/20 07:06:48;;;;;;;21.60;20.10;;;;;;;47.17;22.31;100570.69;4993557;28;99345;-85
2023/08/20 07:09:14;;;;;;;22.17;20.73;;;;;;;47.83;22.02;100580.41;4993403;28;98338;-85
2023/08/20 07:11:39;;;;;;;21.10;19.67;;;;;;;46.03;23.14;100574.31;4992974;28;96881;-84
2023/08/20 07:14:05;;;;;;;22.23;20.30;;;;;;;47.13;22.36;100584.34;4993940;28;96839;-86
2023/08/20 07:16:31;;;;;;;20.65;19.33;;;;;;;47.75;22.21;100572.66;4993690;28;99120;-85
2023/08/20 07:18:57;;;;;;;21.25;19.75;;;;;;;48.40;21.74;100572.19;4993455;28;98270;-85
2023/08/20 07:21:22;;;;;;;21.02;19.52;;;;;;;49.68;20.82;100571.03;4993977;28;96739;-86
2023/08/20 07:23:48;;;;;;;22.67;21.17;;;;;;;49.43;20.74;100574.28;4993817;28;96899;-86
2023/08/20 07:26:14;;;;;;;21.38;20.08;;;;;;;46.55;23.18;100577.72;4993372;28;99069;-85
2023/08/20 07:28:59;;;;;;;23.70;21.90;;;;;;;47.18;22.58;100577.91;4993739;28;99073;-85
2023/08/20 07:31:30;;;;;;;21.60;20.20;;;;;;;45.26;24.80;100576.31;4993800;28;96839;-85
2023/08/20 07:33:56;;;;;;;21.85;20.27;;;;;;;45.14;24.99;100585.72;4993783;28;96867;-85
2023/08/20 07:36:23;;;;;;;22.05;20.33;;;;;;;47.63;22.65;100584.19;4992654;28;99420;-85
2023/08/20 07:38:48;;;;;;;21.08;19.48;;;;;;;48.50;21.76;100577.69;4979418;28;98792;-86
2023/08/20 07:41:14;;;;;;;21.88;20.35;;;;;;;49.29;21.34;100583.44;4993749;28;96738;-86
2023/08/20 07:43:41;;;;;;;21.23;19.83;;;;;;;50.47;19.95;100584.78;4993495;28;96825;-86
2023/08/20 07:46:07;;;;;;;21.25;19.80;;;;;;;50.30;20.44;100579.03;4993201;28;99276;-85
2023/08/20 07:48:33;;;;;;;21.88;20.38;;;;;;;49.06;21.44;100587.97;4993017;28;99024;-85
2023/08/20 07:50:59;;;;;;;21.08;19.70;;;;;;;50.15;20.70;100580.16;4993394;28;97213;-85
2023/08/20 07:53:25;;;;;;;20.73;19.33;;;;;;;50.85;20.06;100592.88;4993622;28;96821;-85
2023/08/20 07:55:50;;;;;;;21.38;19.67;;;;;;;51.69;19.36;100591.38;4993129;28;98677;-85
2023/08/20 07:58:16;;;;;;;21.13;19.65;;;;;;;52.04;18.33;100580.31;4992937;28;98783;-85
2023/08/20 08:00:41;;;;;;;21.30;19.67;;;;;;;52.03;18.15;100581.50;4992666;28;96756;-86
2023/08/20 08:03:09;;;;;;;22.42;20.83;;;;;;;52.34;18.67;100591.78;4993293;28;96853;-85
2023/08/20 08:05:34;;;;;;;21.75;20.27;;;;;;;51.74;18.20;100591.22;4992763;28;99077;-86
2023/08/20 08:08:00;;;;;;;20.67;19.38;;;;;;;53.02;17.99;100581.81;4992704;28;98545;-85
2023/08/20 08:10:25;;;;;;;20.98;19.48;;;;;;;53.43;17.66;100582.41;4992904;28;96697;-85
2023/08/20 08:12:51;;;;;;;22.65;20.52;;;;;;;54.19;17.19;100585.22;4992626;28;96916;-85
2023/08/20 08:15:16;;;;;;;21.00;19.40;;;;;;;55.06;16.98;100589.38;4992672;28;98805;-85
2023/08/20 08:17:42;;;;;;;21.83;20.42;;;;;;;55.74;16.21;100589.81;4993361;28;99199;-85
2023/08/20 08:20:08;;;;;;;21.00;19.70;;;;;;;56.72;15.45;100586.06;4992985;28;96703;-85
2023/08/20 08:22:33;;;;;;;20.35;19.05;;;;;;;57.79;14.78;100585.38;4993000;28;96818;-85
2023/08/20 08:24:59;;;;;;;20.23;18.92;;;;;;;58.81;13.96;100578.81;4992168;28;98844;-85
2023/08/20 08:27:24;;;;;;;20.80;19.27;;;;;;;59.41;13.93;100586.81;4992644;28;98362;-86
2023/08/20 08:29:50;;;;;;;19.95;18.60;;;;;;;60.14;12.34;100576.34;4992508;28;96834;-85
2023/08/20 08:32:16;;;;;;;19.80;18.60;;;;;;;59.75;13.11;100579.34;4992543;28;96807;-86
2023/08/20 08:34:42;;;;;;;21.17;19.50;;;;;;;60.00;13.27;100580.56;4992514;28;98569;-86
2023/08/20 08:37:07;;;;;;;20.13;18.90;;;;;;;60.84;13.11;100567.13;4974459;28;98341;-86
2023/08/20 08:39:33;;;;;;;19.20;17.98;;;;;;;59.21;12.53;100572.75;4992884;28;96792;-85
2023/08/20 08:42:04;;;;;;;19.85;18.65;;;;;;;58.06;13.20;100575.16;4993015;28;96917;-85
2023/08/20 08:44:32;;;;;;;19.73;18.52;;;;;;;56.41;14.61;100573.47;4974695;28;98261;-85
2023/08/20 08:46:57;;;;;;;21.13;19.55;;;;;;;53.05;16.99;100569.94;4992458;28;98617;-85
2023/08/20 08:49:23;;;;;;;20.10;18.83;;;;;;;50.87;18.40;100573.03;4971107;28;96868;-85
2023/08/20 08:51:50;;;;;;;19.23;17.92;;;;;;;49.02;19.87;100577.72;4987736;28;96864;-85
2023/08/20 08:54:16;;;;;;;20.13;18.85;;;;;;;47.48;21.58;100587.97;4991071;28;99073;-85
2023/08/20 08:56:42;;;;;;;19.80;18.38;;;;;;;46.11;22.67;100581.22;4992557;28;99052;-85
2023/08/20 08:59:08;;;;;;;12.45;11.45;;;;;;;44.91;23.73;100580.69;4992483;28;96720;-84
2023/08/20 09:01:38;;;;;;;20.30;18.80;;;;;;;43.88;24.85;100582.16;4992442;28;96839;-84
2023/08/20 09:04:03;;;;;;;20.30;18.92;;;;;;;42.92;25.97;100583.00;4992088;28;98814;-85
2023/08/20 09:06:44;;;;;;;20.55;19.05;;;;;;;41.81;27.46;100584.00;4992443;28;98647;-85
2023/08/20 09:09:10;;;;;;;21.13;19.73;;;;;;;41.38;27.72;100593.75;4992420;28;96747;-84
2023/08/20 09:11:35;;;;;;;20.30;18.95;;;;;;;40.93;28.64;100600.91;4991936;28;96881;-85
2023/08/20 09:14:01;;;;;;;21.35;19.83;;;;;;;40.54;29.08;100610.84;4991521;28;99049;-84
2023/08/20 09:16:30;;;;;;;20.35;18.88;;;;;;;40.13;29.84;100606.34;4992010;28;98230;-84
2023/08/20 09:18:59;;;;;;;20.90;19.50;;;;;;;39.67;29.80;100614.31;4992200;28;96862;-85
2023/08/20 09:21:28;;;;;;;20.85;19.50;;;;;;;39.29;30.62;100607.28;4992335;28;96898;-84
2023/08/20 09:23:54;;;;;;;21.02;19.45;;;;;;;38.98;31.04;100624.00;4974122;28;99110;-84
2023/08/20 09:26:19;;;;;;;20.90;19.60;;;;;;;38.71;31.77;100624.31;4991790;28;98837;-84
2023/08/20 09:28:46;;;;;;;21.70;19.98;;;;;;;38.53;31.96;100621.63;4992389;28;96881;-84
2023/08/20 09:31:12;;;;;;;21.70;20.13;;;;;;;38.28;32.06;100622.47;4992485;28;96834;-84
2023/08/20 09:33:54;;;;;;;21.45;20.08;;;;;;;38.07;32.40;100617.44;4991818;28;99122;-83
2023/08/20 09:36:33;;;;;;;21.38;19.75;;;;;;;37.89;32.49;100621.78;4991692;28;98797;-84
2023/08/20 09:38:58;;;;;;;22.08;20.40;;;;;;;37.79;33.21;100626.97;4991611;28;96992;-84
2023/08/20 09:41:25;;;;;;;21.25;19.75;;;;;;;37.70;33.27;100631.00;4992030;28;97117;-84
2023/08/20 09:43:56;;;;;;;21.73;20.13;;;;;;;37.70;33.60;100628.28;4993722;28;99010;-84
2023/08/20 09:46:27;;;;;;;22.48;20.90;;;;;;;37.73;33.24;100634.16;4995108;28;98595;-84
2023/08/20 09:48:56;;;;;;;21.67;20.17;;;;;;;37.87;33.31;100632.13;4995421;28;96900;-84
2023/08/20 09:51:25;;;;;;;22.40;20.73;;;;;;;37.97;33.32;100639.88;4995288;28;96867;-84
2023/08/20 09:54:33;;;;;;;21.27;19.88;;;;;;;37.93;34.23;100636.69;4994830;28;98699;-84
2023/08/20 09:57:00;;;;;;;21.60;19.98;;;;;;;37.91;33.91;100638.84;4943007;28;98875;-84
2023/08/20 09:59:26;;;;;;;22.00;20.20;;;;;;;37.99;33.83;100632.25;4995272;28;96749;-84
2023/08/20 10:01:53;;;;;;;22.27;20.77;;;;;;;38.08;34.02;100632.81;4995203;28;96898;-84
2023/08/20 10:04:20;;;;;;;22.08;20.48;;;;;;;38.19;32.92;100626.59;4962885;28;99005;-84
2023/08/20 10:06:46;;;;;;;22.52;20.85;;;;;;;38.20;32.81;100631.03;4976941;28;98892;-84
2023/08/20 10:09:12;;;;;;;21.50;20.00;;;;;;;38.11;33.72;100630.47;4995027;28;96733;-85
2023/08/20 10:11:39;;;;;;;21.20;19.80;;;;;;;38.02;34.03;100632.66;4976910;28;96920;-84
2023/08/20 10:14:05;;;;;;;22.00;20.45;;;;;;;37.85;34.31;100623.31;4979285;28;98601;-84
2023/08/20 10:16:33;;;;;;;22.00;20.48;;;;;;;37.65;34.29;100630.88;4993448;28;98675;-84
2023/08/20 10:19:05;;;;;;;21.15;19.65;;;;;;;37.64;34.61;100618.22;4994918;28;96950;-84
2023/08/20 10:21:32;;;;;;;21.25;19.70;;;;;;;37.50;35.27;100614.78;4995297;28;96750;-84
2023/08/20 10:23:57;;;;;;;20.58;19.17;;;;;;;37.61;34.08;100622.25;4994430;28;99026;-83
2023/08/20 10:26:24;;;;;;;20.85;19.35;;;;;;;37.74;33.81;100616.66;4994099;28;98845;-84
2023/08/20 10:28:49;;;;;;;20.30;19.00;;;;;;;38.02;34.47;100616.22;4976384;28;97169;-84
2023/08/20 10:31:16;;;;;;;20.95;19.45;;;;;;;38.04;33.30;100613.25;4959240;28;97046;-84
2023/08/20 10:33:50;;;;;;;22.00;20.42;;;;;;;38.02;33.14;100602.53;4984508;28;99068;-84
2023/08/20 10:36:22;;;;;;;20.77;19.42;;;;;;;37.81;32.99;100613.84;4994107;28;98561;-84
2023/08/20 10:38:49;;;;;;;21.02;19.35;;;;;;;37.47;32.57;100612.41;4960700;28;96765;-84
2023/08/20 10:41:16;;;;;;;20.80;19.40;;;;;;;37.45;33.65;100614.56;4976584;28;96897;-84
2023/08/20 10:43:49;;;;;;;20.10;18.70;;;;;;;37.32;33.40;100620.94;4975873;28;98699;-83
2023/08/20 10:46:23;;;;;;;20.30;18.67;;;;;;;37.24;33.94;100613.88;4994405;28;98563;-84
2023/08/20 10:48:53;;;;;;;20.05;18.55;;;;;;;37.07;33.32;100615.44;4994432;28;96667;-84
2023/08/20 10:51:24;;;;;;;20.70;19.15;;;;;;;36.96;34.11;100613.38;4994550;28;98874;-84
2023/08/20 10:54:02;;;;;;;20.35;19.15;;;;;;;36.49;34.01;100616.28;4992957;28;99179;-84
2023/08/20 10:56:47;;;;;;;21.02;19.42;;;;;;;36.43;34.80;100620.72;4994025;28;98325;-84
2023/08/20 10:59:16;;;;;;;20.15;18.75;;;;;;;36.47;35.21;100613.75;4980492;28;96788;-84
2023/08/20 11:01:49;;;;;;;21.17;19.70;;;;;;;36.45;36.01;100607.69;4994269;28;96825;-84
2023/08/20 11:04:15;;;;;;;20.27;18.98;;;;;;;36.35;35.94;100618.19;4993765;28;98867;-84
2023/08/20 11:06:41;;;;;;;21.58;20.10;;;;;;;36.30;36.34;100612.53;4993697;28;97260;-84
2023/08/20 11:09:07;;;;;;;20.58;19.13;;;;;;;36.21;36.23;100608.34;4972918;28;96699;-84